createdAt,value
2017-09-09T00:01:16.583Z,59.57
2017-09-09T00:03:44.161Z,59.45
2017-09-09T00:06:11.624Z,59.23
2017-09-09T00:08:39.081Z,59.27
2017-09-09T00:11:06.562Z,58.56
2017-09-09T00:13:34.003Z,58.93
2017-09-09T00:16:01.463Z,59.56
2017-09-09T00:18:29.028Z,59.33
2017-09-09T00:20:56.519Z,59.65
2017-09-09T00:23:23.961Z,59.32
2017-09-09T00:25:51.783Z,59.82
2017-09-09T00:28:19.343Z,59.66
2017-09-09T00:30:46.832Z,59.98
2017-09-09T00:33:14.274Z,60.00
2017-09-09T00:35:41.757Z,60.47
2017-09-09T00:38:09.255Z,60.25
2017-09-09T00:40:36.817Z,60.19
2017-09-09T00:43:04.261Z,60.45
2017-09-09T00:45:31.737Z,60.72
2017-09-09T00:47:59.257Z,60.85
2017-09-09T00:50:26.719Z,60.97
2017-09-09T00:52:54.169Z,61.44
2017-09-09T00:55:21.697Z,61.13
2017-09-09T00:57:49.140Z,61.70
2017-09-09T01:00:16.615Z,61.68
2017-09-09T01:02:44.059Z,61.29
2017-09-09T01:05:11.599Z,61.80
2017-09-09T01:07:39.047Z,61.89
2017-09-09T01:10:06.503Z,62.17
2017-09-09T01:12:33.986Z,62.27
2017-09-09T01:15:01.437Z,62.17
2017-09-09T01:17:29.336Z,62.55
2017-09-09T01:19:56.787Z,62.61
2017-09-09T01:22:24.262Z,62.58
2017-09-09T01:24:51.717Z,62.45
2017-09-09T01:27:19.240Z,62.14
2017-09-09T01:29:46.768Z,62.56
2017-09-09T01:32:14.245Z,62.33
2017-09-09T01:34:41.704Z,61.90
2017-09-09T01:37:09.199Z,61.97
2017-09-09T01:39:36.659Z,61.87
2017-09-09T01:42:04.175Z,61.48
2017-09-09T01:44:31.619Z,62.02
2017-09-09T01:46:59.093Z,61.56
2017-09-09T01:49:26.540Z,61.85
2017-09-09T01:51:54.021Z,62.33
2017-09-09T01:54:21.499Z,62.28
2017-09-09T01:56:48.991Z,61.83
2017-09-09T01:59:16.469Z,61.99
2017-09-09T02:01:43.935Z,62.12
2017-09-09T02:04:11.466Z,62.02
2017-09-09T02:06:38.956Z,61.28
2017-09-09T02:09:06.488Z,61.70
2017-09-09T02:11:33.945Z,61.77
2017-09-09T02:14:01.403Z,61.50
2017-09-09T02:16:28.966Z,61.80
2017-09-09T02:18:56.522Z,61.68
2017-09-09T02:21:24.425Z,61.38
2017-09-09T02:23:51.904Z,61.38
2017-09-09T02:26:19.352Z,61.46
2017-09-09T02:28:46.824Z,61.04
2017-09-09T02:31:14.294Z,61.07
2017-09-09T02:33:41.764Z,60.98
2017-09-09T02:36:09.224Z,60.76
2017-09-09T02:38:36.696Z,60.68
2017-09-09T02:41:04.145Z,61.35
2017-09-09T02:43:31.649Z,61.68
2017-09-09T02:45:59.149Z,61.76
2017-09-09T02:48:26.707Z,61.82
2017-09-09T02:50:54.196Z,61.96
2017-09-09T02:53:21.686Z,61.96
2017-09-09T02:55:49.131Z,62.61
2017-09-09T02:58:16.636Z,63.11
2017-09-09T03:00:44.075Z,63.24
2017-09-09T03:03:11.547Z,63.96
2017-09-09T03:05:39.117Z,64.18
2017-09-09T03:08:06.688Z,63.30
2017-09-09T03:10:34.176Z,64.37
2017-09-09T03:13:01.948Z,64.45
2017-09-09T03:15:29.449Z,64.61
2017-09-09T03:17:57.001Z,65.63
2017-09-09T03:20:24.569Z,65.81
2017-09-09T03:22:52.028Z,66.58
2017-09-09T03:25:19.505Z,66.68
2017-09-09T03:27:46.953Z,66.27
2017-09-09T03:30:14.425Z,65.98
2017-09-09T03:32:41.876Z,65.83
2017-09-09T03:35:09.340Z,65.32
2017-09-09T03:37:36.788Z,66.46
2017-09-09T03:40:04.261Z,66.18
2017-09-09T03:42:31.703Z,65.86
2017-09-09T03:44:59.191Z,66.11
2017-09-09T03:47:26.635Z,66.13
2017-09-09T03:49:54.105Z,66.15
2017-09-09T03:52:21.590Z,66.19
2017-09-09T03:54:49.065Z,66.39
2017-09-09T03:57:16.636Z,67.27
2017-09-09T03:59:44.155Z,67.70
2017-09-09T04:02:11.599Z,68.00
2017-09-09T04:04:39.076Z,70.38
2017-09-09T04:07:06.550Z,70.09
2017-09-09T04:09:34.100Z,70.74
2017-09-09T04:12:01.563Z,69.28
2017-09-09T04:14:29.032Z,70.71
2017-09-09T04:16:56.509Z,70.47
2017-09-09T04:19:23.957Z,70.50
2017-09-09T04:21:51.481Z,70.87
2017-09-09T04:24:18.941Z,71.17
2017-09-09T04:26:46.414Z,70.70
2017-09-09T04:29:13.958Z,70.40
2017-09-09T04:31:41.708Z,70.83
2017-09-09T04:34:09.213Z,71.73
2017-09-09T04:36:36.709Z,71.38
2017-09-09T04:39:04.158Z,71.70
2017-09-09T04:41:31.640Z,72.15
2017-09-09T04:43:59.127Z,72.23
2017-09-09T04:46:26.605Z,71.96
2017-09-09T04:48:54.085Z,72.72
2017-09-09T04:51:21.566Z,72.23
2017-09-09T04:53:49.016Z,72.37
2017-09-09T04:56:16.490Z,72.61
2017-09-09T04:58:44.049Z,73.28
2017-09-09T05:01:11.617Z,73.65
2017-09-09T05:03:39.087Z,74.74
2017-09-09T05:06:06.567Z,75.54
2017-09-09T05:08:34.029Z,75.15
2017-09-09T05:11:01.520Z,74.94
2017-09-09T05:13:29.004Z,76.13
2017-09-09T05:15:56.556Z,76.07
2017-09-09T05:18:24.031Z,76.83
2017-09-09T05:20:51.474Z,78.03
2017-09-09T05:23:19.025Z,77.79
2017-09-09T05:25:46.595Z,78.90
2017-09-09T05:28:14.114Z,78.74
2017-09-09T05:30:41.614Z,78.80
2017-09-09T05:33:09.080Z,78.74
2017-09-09T05:35:36.558Z,79.10
2017-09-09T05:38:04.047Z,78.94
2017-09-09T05:40:31.536Z,78.61
2017-09-09T05:42:59.075Z,78.67
2017-09-09T05:45:26.553Z,78.80
2017-09-09T05:47:54.028Z,79.25
2017-09-09T05:50:21.490Z,78.95
2017-09-09T05:52:48.956Z,78.80
2017-09-09T05:55:16.409Z,79.10
2017-09-09T05:57:43.901Z,79.10
2017-09-09T06:00:11.386Z,79.44
2017-09-09T06:02:38.940Z,79.02
2017-09-09T06:05:06.383Z,78.40
2017-09-09T06:07:33.852Z,77.88
2017-09-09T06:10:01.321Z,76.88
2017-09-09T06:12:28.775Z,76.82
2017-09-09T06:14:56.239Z,76.79
2017-09-09T06:17:23.688Z,76.72
2017-09-09T06:19:51.196Z,76.44
2017-09-09T06:22:18.653Z,77.08
2017-09-09T06:24:46.134Z,76.79
2017-09-09T06:27:13.589Z,75.77
2017-09-09T06:29:41.063Z,76.05
2017-09-09T06:32:08.533Z,76.34
2017-09-09T06:34:36.074Z,76.28
2017-09-09T06:37:03.519Z,76.71
2017-09-09T06:39:31.006Z,76.44
2017-09-09T06:41:58.501Z,76.37
2017-09-09T06:44:25.985Z,75.50
2017-09-09T06:46:53.453Z,75.83
2017-09-09T06:49:20.920Z,75.44
2017-09-09T06:51:48.368Z,75.70
2017-09-09T06:54:15.845Z,75.94
2017-09-09T06:56:43.308Z,75.88
2017-09-09T06:59:10.781Z,75.58
2017-09-09T07:01:38.223Z,76.59
2017-09-09T07:04:05.706Z,76.42
2017-09-09T07:06:33.147Z,75.84
2017-09-09T07:09:00.653Z,75.07
2017-09-09T07:11:28.101Z,75.71
2017-09-09T07:13:55.549Z,74.55
2017-09-09T07:16:23.011Z,74.36
2017-09-09T07:18:50.500Z,74.84
2017-09-09T07:21:18.514Z,75.19
2017-09-09T07:23:46.004Z,74.58
2017-09-09T07:26:13.489Z,74.00
2017-09-09T07:28:40.940Z,73.34
2017-09-09T07:31:08.403Z,72.84
2017-09-09T07:33:35.865Z,72.02
2017-09-09T07:36:03.334Z,72.91
2017-09-09T07:38:30.771Z,72.95
2017-09-09T07:40:58.244Z,73.14
2017-09-09T07:43:25.709Z,73.39
2017-09-09T07:45:53.200Z,72.39
2017-09-09T07:48:20.729Z,71.69
2017-09-09T07:50:48.202Z,72.41
2017-09-09T07:53:15.704Z,72.15
2017-09-09T07:55:43.267Z,72.41
2017-09-09T07:58:10.720Z,72.14
2017-09-09T08:00:38.279Z,71.37
2017-09-09T08:03:05.769Z,70.40
2017-09-09T08:05:33.305Z,70.88
2017-09-09T08:08:00.770Z,68.96
2017-09-09T08:10:28.239Z,69.48
2017-09-09T08:12:55.970Z,69.71
2017-09-09T08:15:23.420Z,69.12
2017-09-09T08:17:50.901Z,68.52
2017-09-09T08:20:18.347Z,68.44
2017-09-09T08:22:45.844Z,68.97
2017-09-09T08:25:13.388Z,67.61
2017-09-09T08:27:40.858Z,68.18
2017-09-09T08:30:08.380Z,68.70
2017-09-09T08:32:35.945Z,68.19
2017-09-09T08:35:03.497Z,68.28
2017-09-09T08:37:30.973Z,68.62
2017-09-09T08:39:58.421Z,68.17
2017-09-09T08:42:25.895Z,68.29
2017-09-09T08:44:53.399Z,67.75
2017-09-09T08:47:21.074Z,66.62
2017-09-09T08:49:49.003Z,66.89
2017-09-09T08:52:16.520Z,66.54
2017-09-09T08:54:43.970Z,67.41
2017-09-09T08:57:11.537Z,67.12
2017-09-09T08:59:39.105Z,67.04
2017-09-09T09:02:06.672Z,66.68
2017-09-09T09:04:34.124Z,66.42
2017-09-09T09:07:01.670Z,66.50
2017-09-09T09:09:29.142Z,66.48
2017-09-09T09:11:56.620Z,66.38
2017-09-09T09:14:24.378Z,66.19
2017-09-09T09:16:51.865Z,67.19
2017-09-09T09:19:19.398Z,66.53
2017-09-09T09:21:46.861Z,66.50
2017-09-09T09:24:14.328Z,66.70
2017-09-09T09:26:41.932Z,67.09
2017-09-09T09:29:09.480Z,66.18
2017-09-09T09:31:36.924Z,66.80
2017-09-09T09:34:04.388Z,67.05
2017-09-09T09:36:31.858Z,66.97
2017-09-09T09:38:59.331Z,67.46
2017-09-09T09:41:26.870Z,66.31
2017-09-09T09:43:54.352Z,65.56
2017-09-09T09:46:21.871Z,64.69
2017-09-09T09:48:49.356Z,63.97
2017-09-09T09:51:16.824Z,64.90
2017-09-09T09:53:44.356Z,64.53
2017-09-09T09:56:11.917Z,64.84
2017-09-09T09:58:39.396Z,64.41
2017-09-09T10:01:06.926Z,64.77
2017-09-09T10:03:34.485Z,64.28
2017-09-09T10:06:01.961Z,63.92
2017-09-09T10:08:29.500Z,64.14
2017-09-09T10:10:56.986Z,64.35
2017-09-09T10:13:24.449Z,63.63
2017-09-09T10:15:51.928Z,63.36
2017-09-09T10:18:19.380Z,63.12
2017-09-09T10:20:46.862Z,62.58
2017-09-09T10:23:14.331Z,63.15
2017-09-09T10:25:57.468Z,63.03
2017-09-09T10:28:24.925Z,63.09
2017-09-09T10:30:52.454Z,63.14
2017-09-09T10:33:19.910Z,63.23
2017-09-09T10:35:47.401Z,62.90
2017-09-09T10:38:14.851Z,62.56
2017-09-09T10:40:42.401Z,62.72
2017-09-09T10:43:09.852Z,61.90
2017-09-09T10:45:37.441Z,62.66
2017-09-09T10:48:04.893Z,62.10
2017-09-09T10:50:32.440Z,60.68
2017-09-09T10:52:59.888Z,60.65
2017-09-09T10:55:27.369Z,60.34
2017-09-09T10:57:54.825Z,59.93
2017-09-09T11:00:22.282Z,59.74
2017-09-09T11:02:49.810Z,59.33
2017-09-09T11:05:17.257Z,59.43
2017-09-09T11:07:44.740Z,59.03
2017-09-09T11:10:12.296Z,59.30
2017-09-09T11:12:39.856Z,59.54
2017-09-09T11:15:07.414Z,59.44
2017-09-09T11:17:34.907Z,59.57
2017-09-09T11:20:02.356Z,59.61
2017-09-09T11:22:29.825Z,58.66
2017-09-09T11:27:25.475Z,57.13
2017-09-09T11:29:52.916Z,57.14
2017-09-09T11:32:20.379Z,57.25
2017-09-09T11:34:47.833Z,56.14
2017-09-09T11:37:15.319Z,56.01
2017-09-09T11:39:42.809Z,55.74
2017-09-09T11:42:10.370Z,56.17
2017-09-09T11:44:37.825Z,56.51
2017-09-09T11:47:05.401Z,56.02
2017-09-09T11:49:32.890Z,56.67
2017-09-09T11:52:00.359Z,55.63
2017-09-09T11:54:27.880Z,56.27
2017-09-09T11:56:55.343Z,56.45
2017-09-09T11:59:22.849Z,56.14
2017-09-09T12:01:50.577Z,54.92
2017-09-09T12:04:18.080Z,54.51
2017-09-09T12:06:45.562Z,54.49
2017-09-09T12:09:13.096Z,54.93
2017-09-09T12:11:40.585Z,54.64
2017-09-09T12:14:08.061Z,54.70
2017-09-09T12:16:35.511Z,53.84
2017-09-09T12:19:03.034Z,54.05
2017-09-09T12:21:30.490Z,54.80
2017-09-09T12:23:57.978Z,53.98
2017-09-09T12:26:25.442Z,53.80
2017-09-09T12:28:52.933Z,54.99
2017-09-09T12:31:20.393Z,53.69
2017-09-09T12:33:47.876Z,53.70
2017-09-09T12:36:15.334Z,54.02
2017-09-09T12:38:42.795Z,54.37
2017-09-09T12:41:10.249Z,53.54
2017-09-09T12:43:37.741Z,52.86
2017-09-09T12:46:05.186Z,52.71
2017-09-09T12:48:32.689Z,52.40
2017-09-09T12:51:00.137Z,52.58
2017-09-09T12:53:27.607Z,52.60
2017-09-09T12:55:55.056Z,53.30
2017-09-09T12:58:22.586Z,53.98
2017-09-09T13:00:50.025Z,53.77
2017-09-09T13:03:17.565Z,53.22
2017-09-09T13:05:45.099Z,53.77
2017-09-09T13:08:12.544Z,54.12
2017-09-09T13:10:40.019Z,53.73
2017-09-09T13:13:07.477Z,53.98
2017-09-09T13:15:34.957Z,54.16
2017-09-09T13:18:02.428Z,54.47
2017-09-09T13:20:29.917Z,53.49
2017-09-09T13:22:57.367Z,54.09
2017-09-09T13:25:24.861Z,53.96
2017-09-09T13:27:52.445Z,53.81
2017-09-09T13:30:19.911Z,53.73
2017-09-09T13:32:47.443Z,53.99
2017-09-09T13:35:14.922Z,53.90
2017-09-09T13:37:42.443Z,54.53
2017-09-09T13:40:10.002Z,53.44
2017-09-09T13:42:37.469Z,54.07
2017-09-09T13:45:05.038Z,53.06
2017-09-09T13:47:32.494Z,53.30
2017-09-09T13:49:59.973Z,52.91
2017-09-09T13:52:27.440Z,52.28
2017-09-09T13:54:54.898Z,53.13
2017-09-09T13:57:22.335Z,53.38
2017-09-09T13:59:50.540Z,53.18
2017-09-09T14:02:18.049Z,52.53
2017-09-09T14:04:45.524Z,53.44
2017-09-09T14:07:13.057Z,53.56
2017-09-09T14:09:40.612Z,54.55
2017-09-09T14:12:08.089Z,54.80
2017-09-09T14:14:35.547Z,55.53
2017-09-09T14:17:03.008Z,55.76
2017-09-09T14:19:30.449Z,55.06
2017-09-09T14:21:57.971Z,55.68
2017-09-09T14:24:25.458Z,55.68
2017-09-09T14:26:52.932Z,55.75
2017-09-09T14:29:20.467Z,56.21
2017-09-09T14:31:47.927Z,57.12
2017-09-09T14:34:15.372Z,55.95
2017-09-09T14:36:42.850Z,56.57
2017-09-09T14:39:10.308Z,56.37
2017-09-09T14:41:38.024Z,56.82
2017-09-09T14:44:05.532Z,56.45
2017-09-09T14:46:33.054Z,57.20
2017-09-09T14:49:00.499Z,57.17
2017-09-09T14:51:27.959Z,57.56
2017-09-09T14:53:55.444Z,57.84
2017-09-09T14:56:23.000Z,58.53
2017-09-09T14:58:50.443Z,59.33
2017-09-09T15:01:17.920Z,58.67
2017-09-09T15:03:45.384Z,58.38
2017-09-09T15:06:12.923Z,57.91
2017-09-09T15:08:40.400Z,58.70
2017-09-09T15:11:07.853Z,58.56
2017-09-09T15:13:35.324Z,58.56
2017-09-09T15:16:02.827Z,57.01
2017-09-09T15:18:30.488Z,57.23
2017-09-09T15:20:57.927Z,57.39
2017-09-09T15:23:25.398Z,57.24
2017-09-09T15:25:52.839Z,56.92
2017-09-09T15:28:20.308Z,56.46
2017-09-09T15:30:47.851Z,57.46
2017-09-09T15:33:15.358Z,57.52
2017-09-09T15:35:42.802Z,57.48
2017-09-09T15:38:10.304Z,58.03
2017-09-09T15:40:37.831Z,58.17
2017-09-09T15:43:05.727Z,58.28
2017-09-09T15:45:33.274Z,59.27
2017-09-09T15:48:00.740Z,59.72
2017-09-09T15:50:28.290Z,60.95
2017-09-09T15:52:55.833Z,61.52
2017-09-09T15:55:23.434Z,61.75
2017-09-09T15:57:50.918Z,61.75
2017-09-09T16:00:18.367Z,63.11
2017-09-09T16:02:45.829Z,62.48
2017-09-09T16:05:13.306Z,62.81
2017-09-09T16:07:40.748Z,62.84
2017-09-09T16:10:08.245Z,63.53
2017-09-09T16:12:35.713Z,63.55
2017-09-09T16:15:03.183Z,64.17
2017-09-09T16:17:30.719Z,63.93
2017-09-09T16:19:58.300Z,63.29
2017-09-09T16:22:25.766Z,63.13
2017-09-09T16:24:53.275Z,62.90
2017-09-09T16:27:20.745Z,63.31
2017-09-09T16:29:48.248Z,63.14
2017-09-09T16:32:15.933Z,63.53
2017-09-09T16:34:43.408Z,64.08
2017-09-09T16:37:10.969Z,64.21
2017-09-09T16:39:38.537Z,63.78
2017-09-09T16:42:05.996Z,64.19
2017-09-09T16:44:33.600Z,64.37
2017-09-09T16:47:01.049Z,64.06
2017-09-09T16:49:28.526Z,63.46
2017-09-09T16:51:56.021Z,64.16
2017-09-09T16:54:23.483Z,64.47
2017-09-09T16:56:50.939Z,64.51
2017-09-09T16:59:18.407Z,63.85
2017-09-09T17:01:45.852Z,64.17
2017-09-09T17:04:13.299Z,64.00
2017-09-09T17:06:40.853Z,63.72
2017-09-09T17:09:08.299Z,64.28
2017-09-09T17:11:35.872Z,64.14
2017-09-09T17:14:03.433Z,64.30
2017-09-09T17:16:30.913Z,64.37
2017-09-09T17:18:58.442Z,65.02
2017-09-09T17:21:25.977Z,64.71
2017-09-09T17:23:53.459Z,65.17
2017-09-09T17:26:21.017Z,65.86
2017-09-09T17:28:48.488Z,65.98
2017-09-09T17:31:16.023Z,66.12
2017-09-09T17:33:43.463Z,65.54
2017-09-09T17:36:10.944Z,65.20
2017-09-09T17:38:38.419Z,65.52
2017-09-09T17:41:05.956Z,66.20
2017-09-09T17:43:33.404Z,67.05
2017-09-09T17:46:01.535Z,67.14
2017-09-09T17:48:29.072Z,66.77
2017-09-09T17:50:56.609Z,66.67
2017-09-09T17:53:24.063Z,66.92
2017-09-09T17:55:51.533Z,67.32
2017-09-09T17:58:19.740Z,66.36
2017-09-09T18:00:47.286Z,66.64
2017-09-09T18:03:14.743Z,66.46
2017-09-09T18:05:42.264Z,66.62
2017-09-09T18:08:09.757Z,66.40
2017-09-09T18:10:37.217Z,66.31
2017-09-09T18:13:04.686Z,66.56
2017-09-09T18:15:32.132Z,67.10
2017-09-09T18:17:59.604Z,66.85
2017-09-09T18:20:27.064Z,66.40
2017-09-09T18:22:54.531Z,66.92
2017-09-09T18:25:22.019Z,66.99
2017-09-09T18:27:49.585Z,67.11
2017-09-09T18:30:17.131Z,67.24
2017-09-09T18:32:44.619Z,67.31
2017-09-09T18:35:12.121Z,67.30
2017-09-09T18:37:39.610Z,67.19
2017-09-09T18:40:07.067Z,67.59
2017-09-09T18:42:34.542Z,67.93
2017-09-09T18:45:01.997Z,68.35
2017-09-09T18:47:29.596Z,68.65
2017-09-09T18:49:57.096Z,70.03
2017-09-09T18:52:24.559Z,72.23
2017-09-09T18:54:52.105Z,73.87
2017-09-09T18:57:19.568Z,73.18
2017-09-09T18:59:47.007Z,73.93
2017-09-09T19:02:14.451Z,74.13
2017-09-09T19:04:41.927Z,74.04
2017-09-09T19:07:09.401Z,74.27
2017-09-09T19:09:36.867Z,75.03
2017-09-09T19:12:04.325Z,74.69
2017-09-09T19:14:31.799Z,75.56
2017-09-09T19:16:59.249Z,75.18
2017-09-09T19:19:26.776Z,72.47
2017-09-09T19:21:54.229Z,73.74
2017-09-09T19:24:21.740Z,74.13
2017-09-09T19:26:49.248Z,74.19
2017-09-09T19:29:16.716Z,73.97
2017-09-09T19:31:44.189Z,74.31
2017-09-09T19:34:11.669Z,74.41
2017-09-09T19:36:39.120Z,73.97
2017-09-09T19:39:06.594Z,74.47
2017-09-09T19:41:34.040Z,73.76
2017-09-09T19:44:01.508Z,73.20
2017-09-09T19:46:28.966Z,73.40
2017-09-09T19:48:56.465Z,73.17
2017-09-09T19:51:23.923Z,73.96
2017-09-09T19:53:51.481Z,73.11
2017-09-09T19:56:18.935Z,73.56
2017-09-09T19:58:46.417Z,73.38
2017-09-09T20:01:13.881Z,74.05
2017-09-09T20:03:41.331Z,74.65
2017-09-09T20:06:08.817Z,74.64
2017-09-09T20:08:36.317Z,75.27
2017-09-09T20:11:03.780Z,75.50
2017-09-09T20:13:31.224Z,75.16
2017-09-09T20:15:58.685Z,75.87
2017-09-09T20:18:26.146Z,75.73
2017-09-09T20:20:53.732Z,76.51
2017-09-09T20:23:21.182Z,76.97
2017-09-09T20:25:48.660Z,77.02
2017-09-09T20:28:16.112Z,77.06
2017-09-09T20:30:43.590Z,77.05
2017-09-09T20:33:11.035Z,77.14
2017-09-09T20:35:38.515Z,77.99
2017-09-09T20:38:06.112Z,79.43
2017-09-09T20:40:33.682Z,79.90
2017-09-09T20:43:01.217Z,80.11
2017-09-09T20:45:28.790Z,80.91
2017-09-09T20:47:56.257Z,80.73
2017-09-09T20:50:23.755Z,80.37
2017-09-09T20:52:51.200Z,80.26
2017-09-09T20:55:18.662Z,79.73
2017-09-09T20:57:46.109Z,80.67
2017-09-09T21:00:13.579Z,81.19
2017-09-09T21:02:41.027Z,80.24
2017-09-09T21:05:08.479Z,79.95
2017-09-09T21:07:35.939Z,80.13
2017-09-09T21:10:03.404Z,81.91
2017-09-09T21:12:30.875Z,82.45
2017-09-09T21:14:58.351Z,82.30
2017-09-09T21:17:25.911Z,81.33
2017-09-09T21:19:53.366Z,79.74
2017-09-09T21:22:20.842Z,81.19
2017-09-09T21:24:48.296Z,80.86
2017-09-09T21:27:15.781Z,81.03
2017-09-09T21:29:43.270Z,82.23
2017-09-09T21:32:10.817Z,82.86
2017-09-09T21:34:38.332Z,81.89
2017-09-09T21:37:05.836Z,82.61
2017-09-09T21:39:33.293Z,82.37
2017-09-09T21:42:00.789Z,81.56
2017-09-09T21:44:28.436Z,80.73
2017-09-09T21:46:55.936Z,81.14
2017-09-09T21:49:23.407Z,81.29
2017-09-09T21:51:50.887Z,81.27
2017-09-09T21:54:18.371Z,81.54
2017-09-09T21:56:46.439Z,81.76
2017-09-09T21:59:13.923Z,83.58
2017-09-09T22:01:41.463Z,83.68
2017-09-09T22:04:08.952Z,82.86
2017-09-09T22:06:36.421Z,83.66
2017-09-09T22:09:03.918Z,84.16
2017-09-09T22:11:31.365Z,83.29
2017-09-09T22:13:58.842Z,82.45
2017-09-09T22:16:26.293Z,82.13
2017-09-09T22:18:53.781Z,80.86
2017-09-09T22:21:21.217Z,81.24
2017-09-09T22:23:48.872Z,81.09
2017-09-09T22:26:16.371Z,81.44
2017-09-09T22:28:43.855Z,81.84
2017-09-09T22:31:11.353Z,82.26
2017-09-09T22:33:38.818Z,82.80
2017-09-09T22:36:06.468Z,81.50
2017-09-09T22:38:33.952Z,81.92
2017-09-09T22:41:01.408Z,81.64
2017-09-09T22:43:28.882Z,81.53
2017-09-09T22:45:56.338Z,81.13
2017-09-09T22:48:23.808Z,81.90
2017-09-09T22:50:51.285Z,82.14
2017-09-09T22:53:18.868Z,81.61
2017-09-09T22:55:46.426Z,81.28
2017-09-09T22:58:13.912Z,82.68
2017-09-09T23:00:41.365Z,82.41
2017-09-09T23:03:08.854Z,81.99
2017-09-09T23:05:36.353Z,81.12
2017-09-09T23:08:03.829Z,80.65
2017-09-09T23:10:31.384Z,81.81
2017-09-09T23:12:58.832Z,82.17
2017-09-09T23:15:26.389Z,82.53
2017-09-09T23:17:53.998Z,82.24
2017-09-09T23:20:21.479Z,82.18
2017-09-09T23:22:48.936Z,81.33
2017-09-09T23:25:16.400Z,82.11
2017-09-09T23:27:43.858Z,82.26
2017-09-09T23:30:11.340Z,82.16
2017-09-09T23:32:38.797Z,82.60
2017-09-09T23:35:06.278Z,82.70
2017-09-09T23:37:33.751Z,82.41
2017-09-09T23:40:01.219Z,81.70
2017-09-09T23:42:28.675Z,82.16
2017-09-09T23:44:56.185Z,82.46
2017-09-09T23:47:23.636Z,83.46
2017-09-09T23:49:51.218Z,83.35
2017-09-09T23:52:18.744Z,82.63
2017-09-09T23:54:46.303Z,83.73
2017-09-09T23:57:13.868Z,84.06
2017-09-09T23:59:41.352Z,83.95
